sensor_id;sensor_type;location;lat;lon;timestamp;P1;durP1;ratioP1;P2;durP2;ratioP2
77170;SDS011;66144;50.020;14.422;2023-08-30T00:00:36;2.67;;;1.70;;
77170;SDS011;66144;50.020;14.422;2023-08-30T00:03:02;3.55;;;1.85;;
77170;SDS011;66144;50.020;14.422;2023-08-30T00:05:27;3.65;;;1.75;;
77170;SDS011;66144;50.020;14.422;2023-08-30T00:07:53;2.85;;;1.40;;
77170;SDS011;66144;50.020;14.422;2023-08-30T00:10:19;3.15;;;1.60;;
77170;SDS011;66144;50.020;14.422;2023-08-30T00:12:44;3.40;;;1.60;;
77170;SDS011;66144;50.020;14.422;2023-08-30T00:15:10;3.40;;;1.85;;
77170;SDS011;66144;50.020;14.422;2023-08-30T00:17:35;3.00;;;2.00;;
77170;SDS011;66144;50.020;14.422;2023-08-30T00:20:00;2.70;;;1.80;;
77170;SDS011;66144;50.020;14.422;2023-08-30T00:22:26;3.22;;;1.80;;
77170;SDS011;66144;50.020;14.422;2023-08-30T00:24:52;3.20;;;2.00;;
77170;SDS011;66144;50.020;14.422;2023-08-30T00:27:18;2.70;;;1.80;;
77170;SDS011;66144;50.020;14.422;2023-08-30T00:29:45;3.15;;;1.70;;
77170;SDS011;66144;50.020;14.422;2023-08-30T00:32:11;3.70;;;2.00;;
77170;SDS011;66144;50.020;14.422;2023-08-30T00:34:36;2.88;;;1.60;;
77170;SDS011;66144;50.020;14.422;2023-08-30T00:37:02;3.65;;;1.65;;
77170;SDS011;66144;50.020;14.422;2023-08-30T00:39:27;3.53;;;1.77;;
77170;SDS011;66144;50.020;14.422;2023-08-30T00:41:53;4.68;;;1.77;;
77170;SDS011;66144;50.020;14.422;2023-08-30T00:44:18;4.20;;;1.92;;
77170;SDS011;66144;50.020;14.422;2023-08-30T00:46:43;2.70;;;1.90;;
77170;SDS011;66144;50.020;14.422;2023-08-30T00:49:09;2.83;;;2.00;;
77170;SDS011;66144;50.020;14.422;2023-08-30T00:51:35;2.75;;;1.90;;
77170;SDS011;66144;50.020;14.422;2023-08-30T00:54:01;3.58;;;1.95;;
77170;SDS011;66144;50.020;14.422;2023-08-30T00:56:27;2.97;;;1.75;;
77170;SDS011;66144;50.020;14.422;2023-08-30T00:58:53;4.80;;;2.25;;
77170;SDS011;66144;50.020;14.422;2023-08-30T01:01:19;4.53;;;2.10;;
77170;SDS011;66144;50.020;14.422;2023-08-30T01:03:45;5.70;;;2.30;;
77170;SDS011;66144;50.020;14.422;2023-08-30T01:06:10;5.47;;;2.20;;
77170;SDS011;66144;50.020;14.422;2023-08-30T01:08:36;3.33;;;2.00;;
77170;SDS011;66144;50.020;14.422;2023-08-30T01:13:58;3.35;;;1.83;;
77170;SDS011;66144;50.020;14.422;2023-08-30T01:16:29;3.00;;;2.03;;
77170;SDS011;66144;50.020;14.422;2023-08-30T01:18:56;3.78;;;2.10;;
77170;SDS011;66144;50.020;14.422;2023-08-30T01:21:32;3.65;;;2.20;;
77170;SDS011;66144;50.020;14.422;2023-08-30T01:24:03;4.72;;;2.35;;
77170;SDS011;66144;50.020;14.422;2023-08-30T01:27:22;6.57;;;2.70;;
77170;SDS011;66144;50.020;14.422;2023-08-30T01:29:25;3.00;;;2.03;;
77170;SDS011;66144;50.020;14.422;2023-08-30T01:31:52;3.65;;;2.50;;
77170;SDS011;66144;50.020;14.422;2023-08-30T01:34:18;3.70;;;2.10;;
77170;SDS011;66144;50.020;14.422;2023-08-30T01:36:44;4.53;;;2.30;;
77170;SDS011;66144;50.020;14.422;2023-08-30T01:39:10;3.60;;;2.53;;
77170;SDS011;66144;50.020;14.422;2023-08-30T01:41:37;4.22;;;2.45;;
77170;SDS011;66144;50.020;14.422;2023-08-30T01:44:05;4.85;;;2.45;;
77170;SDS011;66144;50.020;14.422;2023-08-30T01:46:33;6.05;;;2.47;;
77170;SDS011;66144;50.020;14.422;2023-08-30T01:48:59;3.95;;;2.13;;
77170;SDS011;66144;50.020;14.422;2023-08-30T01:51:26;5.68;;;2.22;;
77170;SDS011;66144;50.020;14.422;2023-08-30T01:53:53;9.30;;;2.60;;
77170;SDS011;66144;50.020;14.422;2023-08-30T01:56:20;4.85;;;2.15;;
77170;SDS011;66144;50.020;14.422;2023-08-30T01:58:46;3.92;;;2.10;;
77170;SDS011;66144;50.020;14.422;2023-08-30T02:01:11;5.15;;;2.13;;
77170;SDS011;66144;50.020;14.422;2023-08-30T02:03:37;3.70;;;2.35;;
77170;SDS011;66144;50.020;14.422;2023-08-30T02:06:03;3.22;;;2.00;;
77170;SDS011;66144;50.020;14.422;2023-08-30T02:08:50;4.18;;;2.15;;
77170;SDS011;66144;50.020;14.422;2023-08-30T02:11:19;4.63;;;2.45;;
77170;SDS011;66144;50.020;14.422;2023-08-30T02:13:48;4.30;;;1.70;;
77170;SDS011;66144;50.020;14.422;2023-08-30T02:16:15;2.78;;;1.70;;
77170;SDS011;66144;50.020;14.422;2023-08-30T02:18:43;3.72;;;2.00;;
77170;SDS011;66144;50.020;14.422;2023-08-30T02:21:09;12.05;;;2.42;;
77170;SDS011;66144;50.020;14.422;2023-08-30T02:23:35;4.28;;;2.00;;
77170;SDS011;66144;50.020;14.422;2023-08-30T02:26:01;3.30;;;1.88;;
77170;SDS011;66144;50.020;14.422;2023-08-30T02:28:28;3.35;;;1.73;;
77170;SDS011;66144;50.020;14.422;2023-08-30T02:30:53;3.05;;;1.88;;
77170;SDS011;66144;50.020;14.422;2023-08-30T02:33:25;4.40;;;1.73;;
77170;SDS011;66144;50.020;14.422;2023-08-30T02:35:50;3.90;;;1.50;;
77170;SDS011;66144;50.020;14.422;2023-08-30T02:38:16;2.65;;;1.50;;
77170;SDS011;66144;50.020;14.422;2023-08-30T02:40:42;4.78;;;1.63;;
77170;SDS011;66144;50.020;14.422;2023-08-30T02:43:07;3.50;;;1.45;;
77170;SDS011;66144;50.020;14.422;2023-08-30T02:45:33;3.83;;;1.30;;
77170;SDS011;66144;50.020;14.422;2023-08-30T02:47:58;2.20;;;1.30;;
77170;SDS011;66144;50.020;14.422;2023-08-30T02:50:24;2.95;;;1.40;;
77170;SDS011;66144;50.020;14.422;2023-08-30T02:52:49;2.40;;;1.30;;
77170;SDS011;66144;50.020;14.422;2023-08-30T02:55:15;1.77;;;1.10;;
77170;SDS011;66144;50.020;14.422;2023-08-30T02:57:41;4.68;;;1.88;;
77170;SDS011;66144;50.020;14.422;2023-08-30T03:00:06;2.38;;;1.33;;
77170;SDS011;66144;50.020;14.422;2023-08-30T03:02:32;3.45;;;1.20;;
77170;SDS011;66144;50.020;14.422;2023-08-30T03:04:58;2.85;;;1.08;;
77170;SDS011;66144;50.020;14.422;2023-08-30T03:07:24;3.67;;;1.42;;
77170;SDS011;66144;50.020;14.422;2023-08-30T03:09:53;2.80;;;1.30;;
77170;SDS011;66144;50.020;14.422;2023-08-30T03:12:18;3.63;;;1.10;;
77170;SDS011;66144;50.020;14.422;2023-08-30T03:14:44;2.40;;;1.38;;
77170;SDS011;66144;50.020;14.422;2023-08-30T03:17:09;2.67;;;1.75;;
77170;SDS011;66144;50.020;14.422;2023-08-30T03:19:34;2.38;;;1.38;;
77170;SDS011;66144;50.020;14.422;2023-08-30T03:22:00;2.85;;;1.15;;
77170;SDS011;66144;50.020;14.422;2023-08-30T03:24:25;5.00;;;1.33;;
77170;SDS011;66144;50.020;14.422;2023-08-30T03:26:51;2.58;;;1.63;;
77170;SDS011;66144;50.020;14.422;2023-08-30T03:29:16;3.10;;;1.58;;
77170;SDS011;66144;50.020;14.422;2023-08-30T03:31:42;3.10;;;1.38;;
77170;SDS011;66144;50.020;14.422;2023-08-30T03:34:08;3.53;;;1.42;;
77170;SDS011;66144;50.020;14.422;2023-08-30T03:36:34;4.55;;;1.73;;
77170;SDS011;66144;50.020;14.422;2023-08-30T03:38:59;2.85;;;1.25;;
77170;SDS011;66144;50.020;14.422;2023-08-30T03:41:25;4.20;;;1.13;;
77170;SDS011;66144;50.020;14.422;2023-08-30T03:43:50;2.53;;;1.30;;
77170;SDS011;66144;50.020;14.422;2023-08-30T03:46:15;4.05;;;1.60;;
77170;SDS011;66144;50.020;14.422;2023-08-30T03:48:41;2.33;;;1.33;;
77170;SDS011;66144;50.020;14.422;2023-08-30T03:51:06;3.53;;;1.60;;
77170;SDS011;66144;50.020;14.422;2023-08-30T03:53:32;2.70;;;1.45;;
77170;SDS011;66144;50.020;14.422;2023-08-30T03:55:57;2.42;;;1.38;;
77170;SDS011;66144;50.020;14.422;2023-08-30T03:58:23;3.95;;;1.30;;
77170;SDS011;66144;50.020;14.422;2023-08-30T04:00:49;2.53;;;1.40;;
77170;SDS011;66144;50.020;14.422;2023-08-30T04:03:15;7.60;;;2.03;;
77170;SDS011;66144;50.020;14.422;2023-08-30T04:05:40;5.15;;;1.52;;
77170;SDS011;66144;50.020;14.422;2023-08-30T04:08:07;2.58;;;1.42;;
77170;SDS011;66144;50.020;14.422;2023-08-30T04:10:36;4.30;;;1.70;;
77170;SDS011;66144;50.020;14.422;2023-08-30T04:13:05;3.88;;;1.80;;
77170;SDS011;66144;50.020;14.422;2023-08-30T04:15:32;3.40;;;1.52;;
77170;SDS011;66144;50.020;14.422;2023-08-30T04:17:59;2.72;;;1.60;;
77170;SDS011;66144;50.020;14.422;2023-08-30T04:20:24;3.45;;;1.52;;
77170;SDS011;66144;50.020;14.422;2023-08-30T04:22:49;3.20;;;1.70;;
77170;SDS011;66144;50.020;14.422;2023-08-30T04:25:15;3.75;;;1.70;;
77170;SDS011;66144;50.020;14.422;2023-08-30T04:27:40;7.72;;;1.85;;
77170;SDS011;66144;50.020;14.422;2023-08-30T04:30:06;3.00;;;1.65;;
77170;SDS011;66144;50.020;14.422;2023-08-30T04:32:32;2.70;;;1.77;;
77170;SDS011;66144;50.020;14.422;2023-08-30T04:34:57;3.13;;;1.38;;
77170;SDS011;66144;50.020;14.422;2023-08-30T04:37:25;3.38;;;1.48;;
77170;SDS011;66144;50.020;14.422;2023-08-30T04:39:55;3.05;;;1.50;;
77170;SDS011;66144;50.020;14.422;2023-08-30T04:42:21;3.15;;;1.52;;
77170;SDS011;66144;50.020;14.422;2023-08-30T04:44:46;3.58;;;1.60;;
77170;SDS011;66144;50.020;14.422;2023-08-30T04:47:11;2.72;;;1.60;;
77170;SDS011;66144;50.020;14.422;2023-08-30T04:49:37;3.55;;;1.50;;
77170;SDS011;66144;50.020;14.422;2023-08-30T04:52:03;2.75;;;1.42;;
77170;SDS011;66144;50.020;14.422;2023-08-30T04:54:29;3.67;;;1.50;;
77170;SDS011;66144;50.020;14.422;2023-08-30T04:56:54;2.50;;;1.40;;
77170;SDS011;66144;50.020;14.422;2023-08-30T04:59:20;3.10;;;1.50;;
77170;SDS011;66144;50.020;14.422;2023-08-30T05:01:45;4.63;;;1.70;;
77170;SDS011;66144;50.020;14.422;2023-08-30T05:04:11;2.78;;;1.50;;
77170;SDS011;66144;50.020;14.422;2023-08-30T05:06:37;2.35;;;1.45;;
77170;SDS011;66144;50.020;14.422;2023-08-30T05:09:02;3.45;;;1.70;;
77170;SDS011;66144;50.020;14.422;2023-08-30T05:11:28;4.68;;;1.60;;
77170;SDS011;66144;50.020;14.422;2023-08-30T05:13:54;2.45;;;1.55;;
77170;SDS011;66144;50.020;14.422;2023-08-30T05:16:20;4.88;;;1.80;;
77170;SDS011;66144;50.020;14.422;2023-08-30T05:18:45;3.95;;;1.85;;
77170;SDS011;66144;50.020;14.422;2023-08-30T05:21:12;2.67;;;1.40;;
77170;SDS011;66144;50.020;14.422;2023-08-30T05:23:38;3.80;;;1.65;;
77170;SDS011;66144;50.020;14.422;2023-08-30T05:26:06;4.68;;;2.03;;
77170;SDS011;66144;50.020;14.422;2023-08-30T05:28:32;2.72;;;1.50;;
77170;SDS011;66144;50.020;14.422;2023-08-30T05:30:58;4.82;;;1.65;;
77170;SDS011;66144;50.020;14.422;2023-08-30T05:33:23;4.45;;;1.80;;
77170;SDS011;66144;50.020;14.422;2023-08-30T05:35:48;5.13;;;2.08;;
77170;SDS011;66144;50.020;14.422;2023-08-30T05:38:14;3.45;;;1.70;;
77170;SDS011;66144;50.020;14.422;2023-08-30T05:40:39;2.80;;;1.70;;
77170;SDS011;66144;50.020;14.422;2023-08-30T05:43:08;3.08;;;1.75;;
77170;SDS011;66144;50.020;14.422;2023-08-30T05:45:33;4.40;;;1.90;;
77170;SDS011;66144;50.020;14.422;2023-08-30T05:47:58;3.17;;;1.60;;
77170;SDS011;66144;50.020;14.422;2023-08-30T05:50:24;3.40;;;1.65;;
77170;SDS011;66144;50.020;14.422;2023-08-30T05:52:49;2.88;;;1.83;;
77170;SDS011;66144;50.020;14.422;2023-08-30T05:55:16;5.18;;;2.00;;
77170;SDS011;66144;50.020;14.422;2023-08-30T05:57:42;3.80;;;1.83;;
77170;SDS011;66144;50.020;14.422;2023-08-30T06:00:07;4.15;;;2.10;;
77170;SDS011;66144;50.020;14.422;2023-08-30T06:02:33;3.00;;;1.95;;
77170;SDS011;66144;50.020;14.422;2023-08-30T06:04:59;3.90;;;1.77;;
77170;SDS011;66144;50.020;14.422;2023-08-30T06:07:24;4.75;;;2.30;;
77170;SDS011;66144;50.020;14.422;2023-08-30T06:09:50;4.18;;;2.10;;
77170;SDS011;66144;50.020;14.422;2023-08-30T06:12:15;6.32;;;2.42;;
77170;SDS011;66144;50.020;14.422;2023-08-30T06:14:41;3.25;;;1.85;;
77170;SDS011;66144;50.020;14.422;2023-08-30T06:17:07;6.32;;;2.30;;
77170;SDS011;66144;50.020;14.422;2023-08-30T06:19:32;3.60;;;2.15;;
77170;SDS011;66144;50.020;14.422;2023-08-30T06:21:58;3.30;;;1.90;;
77170;SDS011;66144;50.020;14.422;2023-08-30T06:24:24;5.10;;;2.10;;
77170;SDS011;66144;50.020;14.422;2023-08-30T06:26:50;5.60;;;2.40;;
77170;SDS011;66144;50.020;14.422;2023-08-30T06:29:15;4.40;;;2.15;;
77170;SDS011;66144;50.020;14.422;2023-08-30T06:31:40;3.63;;;2.38;;
77170;SDS011;66144;50.020;14.422;2023-08-30T06:34:07;4.15;;;2.20;;
77170;SDS011;66144;50.020;14.422;2023-08-30T06:36:32;4.47;;;2.78;;
77170;SDS011;66144;50.020;14.422;2023-08-30T06:38:58;6.13;;;2.70;;
77170;SDS011;66144;50.020;14.422;2023-08-30T06:41:23;5.20;;;2.60;;
77170;SDS011;66144;50.020;14.422;2023-08-30T06:43:48;3.95;;;2.00;;
77170;SDS011;66144;50.020;14.422;2023-08-30T06:46:14;4.50;;;2.28;;
77170;SDS011;66144;50.020;14.422;2023-08-30T06:48:39;4.55;;;2.53;;
77170;SDS011;66144;50.020;14.422;2023-08-30T06:51:05;4.25;;;2.00;;
77170;SDS011;66144;50.020;14.422;2023-08-30T06:53:30;4.10;;;2.50;;
77170;SDS011;66144;50.020;14.422;2023-08-30T06:55:56;5.82;;;2.75;;
77170;SDS011;66144;50.020;14.422;2023-08-30T06:58:22;4.80;;;2.58;;
77170;SDS011;66144;50.020;14.422;2023-08-30T07:00:47;5.78;;;2.40;;
77170;SDS011;66144;50.020;14.422;2023-08-30T07:03:13;3.17;;;2.13;;
77170;SDS011;66144;50.020;14.422;2023-08-30T07:05:38;5.32;;;2.80;;
77170;SDS011;66144;50.020;14.422;2023-08-30T07:08:04;5.57;;;2.78;;
77170;SDS011;66144;50.020;14.422;2023-08-30T07:10:29;4.75;;;2.42;;
77170;SDS011;66144;50.020;14.422;2023-08-30T07:12:54;3.88;;;2.35;;
77170;SDS011;66144;50.020;14.422;2023-08-30T07:15:20;4.65;;;2.75;;
77170;SDS011;66144;50.020;14.422;2023-08-30T07:17:45;6.32;;;2.88;;
77170;SDS011;66144;50.020;14.422;2023-08-30T07:20:11;4.43;;;2.65;;
77170;SDS011;66144;50.020;14.422;2023-08-30T07:22:37;4.60;;;2.97;;
77170;SDS011;66144;50.020;14.422;2023-08-30T07:25:02;3.67;;;2.50;;
77170;SDS011;66144;50.020;14.422;2023-08-30T07:27:28;3.47;;;2.38;;
77170;SDS011;66144;50.020;14.422;2023-08-30T07:29:53;5.07;;;2.72;;
77170;SDS011;66144;50.020;14.422;2023-08-30T07:32:19;3.88;;;2.75;;
77170;SDS011;66144;50.020;14.422;2023-08-30T07:34:44;4.47;;;2.45;;
77170;SDS011;66144;50.020;14.422;2023-08-30T07:37:19;6.53;;;2.92;;
77170;SDS011;66144;50.020;14.422;2023-08-30T07:39:45;5.45;;;3.00;;
77170;SDS011;66144;50.020;14.422;2023-08-30T07:42:11;4.13;;;2.67;;
77170;SDS011;66144;50.020;14.422;2023-08-30T07:44:36;5.53;;;2.90;;
77170;SDS011;66144;50.020;14.422;2023-08-30T07:47:02;4.78;;;2.97;;
77170;SDS011;66144;50.020;14.422;2023-08-30T07:49:28;6.00;;;3.10;;
77170;SDS011;66144;50.020;14.422;2023-08-30T07:51:53;4.35;;;2.72;;
77170;SDS011;66144;50.020;14.422;2023-08-30T07:54:18;4.32;;;2.80;;
77170;SDS011;66144;50.020;14.422;2023-08-30T07:56:44;4.85;;;3.08;;
77170;SDS011;66144;50.020;14.422;2023-08-30T07:59:09;3.63;;;2.70;;
77170;SDS011;66144;50.020;14.422;2023-08-30T08:01:35;4.68;;;2.75;;
77170;SDS011;66144;50.020;14.422;2023-08-30T08:04:00;5.30;;;2.88;;
77170;SDS011;66144;50.020;14.422;2023-08-30T08:06:26;4.82;;;2.85;;
77170;SDS011;66144;50.020;14.422;2023-08-30T08:08:51;6.13;;;2.60;;
77170;SDS011;66144;50.020;14.422;2023-08-30T08:11:16;5.10;;;2.60;;
77170;SDS011;66144;50.020;14.422;2023-08-30T08:13:42;3.55;;;2.70;;
77170;SDS011;66144;50.020;14.422;2023-08-30T08:16:07;4.72;;;2.95;;
77170;SDS011;66144;50.020;14.422;2023-08-30T08:18:33;3.90;;;2.60;;
77170;SDS011;66144;50.020;14.422;2023-08-30T08:20:58;5.00;;;2.90;;
77170;SDS011;66144;50.020;14.422;2023-08-30T08:23:23;6.72;;;3.33;;
77170;SDS011;66144;50.020;14.422;2023-08-30T08:25:49;6.97;;;3.65;;
77170;SDS011;66144;50.020;14.422;2023-08-30T08:28:14;4.47;;;3.33;;
77170;SDS011;66144;50.020;14.422;2023-08-30T08:30:42;5.07;;;3.08;;
77170;SDS011;66144;50.020;14.422;2023-08-30T08:33:10;5.55;;;3.30;;
77170;SDS011;66144;50.020;14.422;2023-08-30T08:35:35;5.20;;;3.10;;
77170;SDS011;66144;50.020;14.422;2023-08-30T08:38:00;5.65;;;3.15;;
77170;SDS011;66144;50.020;14.422;2023-08-30T08:40:26;4.03;;;2.85;;
77170;SDS011;66144;50.020;14.422;2023-08-30T08:42:52;5.53;;;3.13;;
77170;SDS011;66144;50.020;14.422;2023-08-30T08:45:20;5.30;;;3.15;;
77170;SDS011;66144;50.020;14.422;2023-08-30T08:47:47;5.35;;;3.17;;
77170;SDS011;66144;50.020;14.422;2023-08-30T08:50:13;4.53;;;2.85;;
77170;SDS011;66144;50.020;14.422;2023-08-30T08:52:38;4.18;;;3.03;;
77170;SDS011;66144;50.020;14.422;2023-08-30T08:55:04;4.35;;;3.13;;
77170;SDS011;66144;50.020;14.422;2023-08-30T08:57:30;5.70;;;3.22;;
77170;SDS011;66144;50.020;14.422;2023-08-30T08:59:58;4.80;;;3.00;;
77170;SDS011;66144;50.020;14.422;2023-08-30T09:02:24;4.50;;;2.95;;
77170;SDS011;66144;50.020;14.422;2023-08-30T09:04:50;6.05;;;3.20;;
77170;SDS011;66144;50.020;14.422;2023-08-30T09:07:17;6.93;;;4.55;;
77170;SDS011;66144;50.020;14.422;2023-08-30T09:09:44;5.70;;;3.88;;
77170;SDS011;66144;50.020;14.422;2023-08-30T09:12:09;6.10;;;3.28;;
77170;SDS011;66144;50.020;14.422;2023-08-30T09:14:35;5.95;;;3.50;;
77170;SDS011;66144;50.020;14.422;2023-08-30T09:17:01;4.68;;;3.42;;
77170;SDS011;66144;50.020;14.422;2023-08-30T09:19:27;5.82;;;3.58;;
77170;SDS011;66144;50.020;14.422;2023-08-30T09:21:54;6.13;;;3.78;;
77170;SDS011;66144;50.020;14.422;2023-08-30T09:24:20;4.80;;;3.40;;
77170;SDS011;66144;50.020;14.422;2023-08-30T09:26:50;5.25;;;3.22;;
77170;SDS011;66144;50.020;14.422;2023-08-30T09:29:17;4.72;;;3.40;;
77170;SDS011;66144;50.020;14.422;2023-08-30T09:31:43;4.15;;;3.22;;
77170;SDS011;66144;50.020;14.422;2023-08-30T09:34:09;5.72;;;3.47;;
77170;SDS011;66144;50.020;14.422;2023-08-30T09:36:39;6.22;;;3.55;;
77170;SDS011;66144;50.020;14.422;2023-08-30T09:39:12;4.72;;;2.95;;
77170;SDS011;66144;50.020;14.422;2023-08-30T09:41:43;6.82;;;3.38;;
77170;SDS011;66144;50.020;14.422;2023-08-30T09:44:10;5.72;;;3.53;;
77170;SDS011;66144;50.020;14.422;2023-08-30T09:49:07;6.47;;;3.92;;
77170;SDS011;66144;50.020;14.422;2023-08-30T09:51:34;4.32;;;3.55;;
77170;SDS011;66144;50.020;14.422;2023-08-30T09:54:03;4.50;;;3.30;;
77170;SDS011;66144;50.020;14.422;2023-08-30T09:56:30;5.32;;;3.30;;
77170;SDS011;66144;50.020;14.422;2023-08-30T09:58:58;4.65;;;3.33;;
77170;SDS011;66144;50.020;14.422;2023-08-30T10:01:27;5.40;;;3.65;;
77170;SDS011;66144;50.020;14.422;2023-08-30T10:03:54;4.72;;;3.55;;
77170;SDS011;66144;50.020;14.422;2023-08-30T10:06:21;4.78;;;3.10;;
77170;SDS011;66144;50.020;14.422;2023-08-30T10:08:49;5.63;;;3.25;;
77170;SDS011;66144;50.020;14.422;2023-08-30T10:11:18;4.47;;;3.47;;
77170;SDS011;66144;50.020;14.422;2023-08-30T10:13:44;5.40;;;3.22;;
77170;SDS011;66144;50.020;14.422;2023-08-30T10:16:12;4.93;;;3.30;;
77170;SDS011;66144;50.020;14.422;2023-08-30T10:18:43;4.63;;;3.53;;
77170;SDS011;66144;50.020;14.422;2023-08-30T10:21:15;4.82;;;3.25;;
77170;SDS011;66144;50.020;14.422;2023-08-30T10:23:43;6.00;;;4.15;;
77170;SDS011;66144;50.020;14.422;2023-08-30T10:26:11;4.82;;;3.47;;
77170;SDS011;66144;50.020;14.422;2023-08-30T10:28:37;4.20;;;2.88;;
77170;SDS011;66144;50.020;14.422;2023-08-30T10:31:05;4.13;;;3.20;;
77170;SDS011;66144;50.020;14.422;2023-08-30T10:33:30;4.90;;;3.55;;
77170;SDS011;66144;50.020;14.422;2023-08-30T10:36:02;4.85;;;3.28;;
77170;SDS011;66144;50.020;14.422;2023-08-30T10:38:32;4.70;;;3.50;;
77170;SDS011;66144;50.020;14.422;2023-08-30T10:41:07;4.95;;;4.03;;
77170;SDS011;66144;50.020;14.422;2023-08-30T10:43:34;6.32;;;4.50;;
77170;SDS011;66144;50.020;14.422;2023-08-30T10:46:04;4.60;;;3.40;;
77170;SDS011;66144;50.020;14.422;2023-08-30T10:48:40;5.45;;;3.75;;
77170;SDS011;66144;50.020;14.422;2023-08-30T10:51:15;6.30;;;3.95;;
77170;SDS011;66144;50.020;14.422;2023-08-30T10:53:55;6.78;;;3.90;;
77170;SDS011;66144;50.020;14.422;2023-08-30T10:56:29;6.95;;;4.28;;
77170;SDS011;66144;50.020;14.422;2023-08-30T10:58:56;6.13;;;4.30;;
77170;SDS011;66144;50.020;14.422;2023-08-30T11:01:22;4.47;;;3.88;;
77170;SDS011;66144;50.020;14.422;2023-08-30T11:03:47;5.40;;;3.85;;
77170;SDS011;66144;50.020;14.422;2023-08-30T11:06:15;4.68;;;3.88;;
77170;SDS011;66144;50.020;14.422;2023-08-30T11:08:42;4.70;;;4.18;;
77170;SDS011;66144;50.020;14.422;2023-08-30T11:11:09;4.80;;;3.78;;
77170;SDS011;66144;50.020;14.422;2023-08-30T11:13:36;5.43;;;3.58;;
77170;SDS011;66144;50.020;14.422;2023-08-30T11:16:02;4.85;;;3.22;;
77170;SDS011;66144;50.020;14.422;2023-08-30T11:18:29;4.75;;;3.42;;
77170;SDS011;66144;50.020;14.422;2023-08-30T11:20:59;3.83;;;3.40;;
77170;SDS011;66144;50.020;14.422;2023-08-30T11:23:26;4.45;;;3.38;;
77170;SDS011;66144;50.020;14.422;2023-08-30T11:25:51;5.57;;;3.47;;
77170;SDS011;66144;50.020;14.422;2023-08-30T11:28:24;5.55;;;3.78;;
77170;SDS011;66144;50.020;14.422;2023-08-30T11:30:49;4.70;;;3.67;;
77170;SDS011;66144;50.020;14.422;2023-08-30T11:33:18;5.88;;;3.55;;
77170;SDS011;66144;50.020;14.422;2023-08-30T11:35:47;4.63;;;3.70;;
77170;SDS011;66144;50.020;14.422;2023-08-30T11:38:14;4.57;;;3.38;;
77170;SDS011;66144;50.020;14.422;2023-08-30T11:40:40;4.53;;;3.45;;
77170;SDS011;66144;50.020;14.422;2023-08-30T11:43:06;6.28;;;3.58;;
77170;SDS011;66144;50.020;14.422;2023-08-30T11:45:32;4.70;;;3.40;;
77170;SDS011;66144;50.020;14.422;2023-08-30T11:47:59;4.00;;;3.60;;
77170;SDS011;66144;50.020;14.422;2023-08-30T11:50:25;4.30;;;3.13;;
77170;SDS011;66144;50.020;14.422;2023-08-30T11:52:51;4.80;;;3.95;;
77170;SDS011;66144;50.020;14.422;2023-08-30T11:55:17;4.85;;;3.70;;
77170;SDS011;66144;50.020;14.422;2023-08-30T11:57:44;6.43;;;4.03;;
77170;SDS011;66144;50.020;14.422;2023-08-30T12:00:10;6.45;;;3.90;;
77170;SDS011;66144;50.020;14.422;2023-08-30T12:02:36;7.47;;;4.15;;
77170;SDS011;66144;50.020;14.422;2023-08-30T12:05:03;5.60;;;4.43;;
77170;SDS011;66144;50.020;14.422;2023-08-30T12:07:29;5.65;;;3.70;;
77170;SDS011;66144;50.020;14.422;2023-08-30T12:10:05;6.07;;;4.00;;
77170;SDS011;66144;50.020;14.422;2023-08-30T12:12:33;5.05;;;4.32;;
77170;SDS011;66144;50.020;14.422;2023-08-30T12:15:01;5.28;;;4.75;;
77170;SDS011;66144;50.020;14.422;2023-08-30T12:19:59;7.45;;;4.57;;
77170;SDS011;66144;50.020;14.422;2023-08-30T12:22:40;6.38;;;4.88;;
77170;SDS011;66144;50.020;14.422;2023-08-30T12:25:21;7.07;;;4.82;;
77170;SDS011;66144;50.020;14.422;2023-08-30T12:27:51;5.47;;;4.30;;
77170;SDS011;66144;50.020;14.422;2023-08-30T12:30:18;7.00;;;4.40;;
77170;SDS011;66144;50.020;14.422;2023-08-30T12:32:44;5.57;;;4.35;;
77170;SDS011;66144;50.020;14.422;2023-08-30T12:35:10;4.90;;;4.40;;
77170;SDS011;66144;50.020;14.422;2023-08-30T12:37:36;5.55;;;4.68;;
77170;SDS011;66144;50.020;14.422;2023-08-30T12:40:01;6.13;;;4.30;;
77170;SDS011;66144;50.020;14.422;2023-08-30T12:42:27;6.38;;;4.53;;
77170;SDS011;66144;50.020;14.422;2023-08-30T12:44:54;4.85;;;4.32;;
77170;SDS011;66144;50.020;14.422;2023-08-30T12:47:20;4.97;;;4.00;;
77170;SDS011;66144;50.020;14.422;2023-08-30T12:49:46;6.05;;;4.10;;
77170;SDS011;66144;50.020;14.422;2023-08-30T12:52:11;4.68;;;4.18;;
77170;SDS011;66144;50.020;14.422;2023-08-30T12:54:36;4.60;;;4.13;;
77170;SDS011;66144;50.020;14.422;2023-08-30T12:57:02;4.32;;;3.92;;
77170;SDS011;66144;50.020;14.422;2023-08-30T12:59:28;4.35;;;3.95;;
77170;SDS011;66144;50.020;14.422;2023-08-30T13:01:53;4.57;;;4.05;;
77170;SDS011;66144;50.020;14.422;2023-08-30T13:04:19;6.38;;;4.55;;
77170;SDS011;66144;50.020;14.422;2023-08-30T13:06:44;5.47;;;4.78;;
77170;SDS011;66144;50.020;14.422;2023-08-30T13:09:09;5.43;;;4.53;;
77170;SDS011;66144;50.020;14.422;2023-08-30T13:11:35;5.35;;;4.45;;
77170;SDS011;66144;50.020;14.422;2023-08-30T13:14:00;5.40;;;4.40;;
77170;SDS011;66144;50.020;14.422;2023-08-30T13:16:26;5.28;;;4.18;;
77170;SDS011;66144;50.020;14.422;2023-08-30T13:18:51;5.35;;;4.72;;
77170;SDS011;66144;50.020;14.422;2023-08-30T13:21:16;4.70;;;4.30;;
77170;SDS011;66144;50.020;14.422;2023-08-30T13:23:42;4.75;;;3.85;;
77170;SDS011;66144;50.020;14.422;2023-08-30T13:26:08;5.47;;;4.28;;
77170;SDS011;66144;50.020;14.422;2023-08-30T13:28:33;5.82;;;4.20;;
77170;SDS011;66144;50.020;14.422;2023-08-30T13:30:59;5.43;;;4.55;;
77170;SDS011;66144;50.020;14.422;2023-08-30T13:33:25;5.10;;;4.60;;
77170;SDS011;66144;50.020;14.422;2023-08-30T13:35:51;5.20;;;4.60;;
77170;SDS011;66144;50.020;14.422;2023-08-30T13:38:17;6.82;;;4.60;;
77170;SDS011;66144;50.020;14.422;2023-08-30T13:40:43;5.78;;;4.78;;
77170;SDS011;66144;50.020;14.422;2023-08-30T13:43:08;6.15;;;4.40;;
77170;SDS011;66144;50.020;14.422;2023-08-30T13:45:33;6.20;;;4.72;;
77170;SDS011;66144;50.020;14.422;2023-08-30T13:47:59;5.78;;;5.05;;
77170;SDS011;66144;50.020;14.422;2023-08-30T13:50:25;6.22;;;4.95;;
77170;SDS011;66144;50.020;14.422;2023-08-30T13:52:55;4.70;;;4.18;;
77170;SDS011;66144;50.020;14.422;2023-08-30T13:55:21;9.63;;;5.28;;
77170;SDS011;66144;50.020;14.422;2023-08-30T13:57:46;5.78;;;4.72;;
77170;SDS011;66144;50.020;14.422;2023-08-30T14:00:11;5.45;;;4.80;;
77170;SDS011;66144;50.020;14.422;2023-08-30T14:02:38;6.38;;;5.18;;
77170;SDS011;66144;50.020;14.422;2023-08-30T14:05:03;5.65;;;5.05;;
77170;SDS011;66144;50.020;14.422;2023-08-30T14:07:29;7.78;;;5.82;;
77170;SDS011;66144;50.020;14.422;2023-08-30T14:09:54;5.78;;;5.15;;
77170;SDS011;66144;50.020;14.422;2023-08-30T14:12:20;6.32;;;5.28;;
77170;SDS011;66144;50.020;14.422;2023-08-30T14:14:45;5.70;;;5.07;;
77170;SDS011;66144;50.020;14.422;2023-08-30T14:17:11;6.60;;;4.68;;
77170;SDS011;66144;50.020;14.422;2023-08-30T14:19:36;5.20;;;4.70;;
77170;SDS011;66144;50.020;14.422;2023-08-30T14:22:02;5.35;;;4.80;;
77170;SDS011;66144;50.020;14.422;2023-08-30T14:24:30;6.80;;;5.25;;
77170;SDS011;66144;50.020;14.422;2023-08-30T14:26:56;5.75;;;5.20;;
77170;SDS011;66144;50.020;14.422;2023-08-30T14:29:21;6.10;;;5.18;;
77170;SDS011;66144;50.020;14.422;2023-08-30T14:31:47;6.55;;;5.55;;
77170;SDS011;66144;50.020;14.422;2023-08-30T14:34:13;7.60;;;5.53;;
77170;SDS011;66144;50.020;14.422;2023-08-30T14:36:38;6.22;;;5.35;;